KHLB/HLB METAR and TAF weather

Enter ICAO airport designator
Station Type Date Time Source
KHLB METAR 2021/03/09 09:55 UTC NOAA

KHLB 090955Z AUTO 00000KT 10SM CLR 02/M02 A3038 RMK A01


Station Type Date Time Source
KHLB Decoded METAR 2021/03/09 09:55 UTC NOAA

Station name not available
Mar 09, 2021 - 04:55 AM EST / 2021.03.09 0955 UTC
Wind: Calm:0
Visibility: 10 mile(s):0
Sky conditions: clear
Temperature: 35 F (2 C)
Dew Point: 28 F (-2 C)
Relative Humidity: 74%
Pressure (altimeter): 30.38 in. Hg (1028 hPa)
ob: KHLB 090955Z AUTO 00000KT 10SM CLR 02/M02 A3038 RMK A01
cycle: 10

Station Type Date Time Source
KHLB TAF UTC NOAA

Error!

Example: see airport list